Time,TemperatureF,DewpointF,PressureIn,WindDirection,WindDirectionDegrees,WindSpeedMPH,WindSpeedGustMPH,Humidity,HourlyPrecipIn,Conditions,Clouds,dailyrainin,SoftwareType,DateUTC
2013-06-08 00:01:00,74.4,73.2,29.98,South,180,0.0,0.0,96,0.00,RA,OVC,0.00,WeatherDisplay:10.37,2013-06-08 04:01:00,
2013-06-08 00:06:00,74.4,73.2,29.98,SSW,192,15.0,15.0,96,0.00,RA,OVC,0.00,WeatherDisplay:10.37,2013-06-08 04:06:00,
2013-06-08 00:11:00,74.6,73.4,29.98,South,173,8.1,8.1,96,0.00,,OVC,0.00,WeatherDisplay:10.37,2013-06-08 04:11:00,
2013-06-08 00:16:00,74.7,73.5,29.97,SSE,147,11.5,11.5,96,0.00,,OVC,0.00,WeatherDisplay:10.37,2013-06-08 04:16:00,
2013-06-08 00:22:00,74.7,73.5,29.97,SSE,167,10.4,10.4,96,0.00,,OVC,0.00,WeatherDisplay:10.37,2013-06-08 04:22:00,
2013-06-08 00:27:00,74.9,73.7,29.97,South,182,9.2,9.2,96,0.00,,OVC,0.00,WeatherDisplay:10.37,2013-06-08 04:27:00,
2013-06-08 00:32:00,74.9,73.7,29.97,SSE,166,0.0,0.0,96,0.00,,OVC,0.00,WeatherDisplay:10.37,2013-06-08 04:32:00,
2013-06-08 00:37:00,74.9,73.7,29.97,South,183,0.0,0.0,96,0.00,,OVC,0.00,WeatherDisplay:10.37,2013-06-08 04:37:00,
2013-06-08 00:42:00,74.9,73.7,29.97,SSE,148,0.0,0.0,96,0.00,,OVC,0.00,WeatherDisplay:10.37,2013-06-08 04:42:00,
2013-06-08 00:47:00,74.9,73.7,29.97,South,178,13.8,13.8,96,0.00,,OVC,0.00,WeatherDisplay:10.37,2013-06-08 04:47:00,
2013-06-08 00:52:00,75.1,73.9,29.97,South,180,0.0,0.0,96,0.00,,OVC,0.00,WeatherDisplay:10.37,2013-06-08 04:52:00,
2013-06-08 00:57:00,75.3,74.1,29.97,South,188,0.0,0.0,96,0.00,,OVC,0.00,WeatherDisplay:10.37,2013-06-08 04:57:00,
2013-06-08 01:02:00,75.4,74.2,29.96,SSW,209,6.9,6.9,96,0.00,,OVC,0.00,WeatherDisplay:10.37,2013-06-08 05:02:00,
2013-06-08 01:07:00,75.6,74.4,29.96,SSW,196,9.2,9.2,96,0.00,,OVC,0.00,WeatherDisplay:10.37,2013-06-08 05:07:00,
2013-06-08 01:12:00,75.6,74.4,29.96,SSE,161,0.0,0.0,96,0.00,,OVC,0.00,WeatherDisplay:10.37,2013-06-08 05:12:00,
2013-06-08 01:17:00,75.8,74.6,29.95,South,186,10.4,10.4,96,0.00,,OVC,0.00,WeatherDisplay:10.37,2013-06-08 05:17:00,
2013-06-08 01:22:00,75.8,74.6,29.95,SSW,199,1.2,0.0,96,0.00,,OVC,0.00,WeatherDisplay:10.37,2013-06-08 05:22:00,
2013-06-08 01:27:00,75.8,74.6,29.95,SSW,193,0.0,0.0,96,0.00,,OVC,0.00,WeatherDisplay:10.37,2013-06-08 05:27:00,
2013-06-08 01:32:00,75.8,74.6,29.95,SSW,202,0.0,0.0,96,0.00,,OVC,0.00,WeatherDisplay:10.37,2013-06-08 05:32:00,
2013-06-08 01:37:00,75.6,74.4,29.95,South,190,0.0,0.0,96,0.00,,OVC,0.00,WeatherDisplay:10.37,2013-06-08 05:37:00,
2013-06-08 01:42:00,75.6,74.1,29.95,SSW,207,0.0,0.0,95,0.00,,OVC,0.00,WeatherDisplay:10.37,2013-06-08 05:42:00,
2013-06-08 01:47:00,75.6,74.1,29.95,SSW,204,0.0,0.0,95,0.00,,OVC,0.00,WeatherDisplay:10.37,2013-06-08 05:47:00,
2013-06-08 01:52:00,75.4,73.9,29.95,SSW,200,0.0,0.0,95,0.00,,OVC,0.00,WeatherDisplay:10.37,2013-06-08 05:52:00,
2013-06-08 01:57:00,75.3,73.8,29.95,SSW,202,0.0,0.0,95,0.00,,OVC,0.00,WeatherDisplay:10.37,2013-06-08 05:57:00,
2013-06-08 02:02:00,75.3,73.8,29.95,SSW,197,0.0,0.0,95,0.00,,OVC,0.00,WeatherDisplay:10.37,2013-06-08 06:02:00,
2013-06-08 02:07:00,75.3,73.8,29.95,SSW,200,0.0,0.0,95,0.00,,OVC,0.00,WeatherDisplay:10.37,2013-06-08 06:07:00,
2013-06-08 02:12:00,75.3,73.8,29.95,SSW,202,0.0,0.0,95,0.00,,OVC,0.00,WeatherDisplay:10.37,2013-06-08 06:12:00,
2013-06-08 02:17:00,75.3,73.5,29.95,SSW,204,0.0,0.0,94,0.00,,OVC,0.00,WeatherDisplay:10.37,2013-06-08 06:17:00,
2013-06-08 02:22:00,75.1,73.3,29.95,SSW,209,0.0,0.0,94,0.00,,OVC,0.00,WeatherDisplay:10.37,2013-06-08 06:22:00,
2013-06-08 02:27:00,75.1,73.3,29.95,SSW,211,0.0,0.0,94,0.00,,OVC,0.00,WeatherDisplay:10.37,2013-06-08 06:27:00,
2013-06-08 02:32:00,75.1,73.3,29.94,SW,221,0.0,0.0,94,0.00,,OVC,0.00,WeatherDisplay:10.37,2013-06-08 06:32:00,
2013-06-08 02:37:00,74.9,73.1,29.94,SW,221,0.0,0.0,94,0.00,,OVC,0.00,WeatherDisplay:10.37,2013-06-08 06:37:00,
2013-06-08 02:42:00,74.9,73.1,29.94,SW,221,0.0,0.0,94,0.00,,OVC,0.00,WeatherDisplay:10.37,2013-06-08 06:42:00,
2013-06-08 02:47:00,75.1,73.3,29.94,SW,223,0.0,0.0,94,0.00,,OVC,0.00,WeatherDisplay:10.37,2013-06-08 06:47:00,
2013-06-08 02:52:00,74.9,73.1,29.94,SW,223,0.0,0.0,94,0.00,,OVC,0.01,WeatherDisplay:10.37,2013-06-08 06:52:00,
2013-06-08 02:57:00,74.9,73.1,29.94,SW,223,0.0,0.0,94,0.01,RA,OVC,0.01,WeatherDisplay:10.37,2013-06-08 06:57:00,
2013-06-08 03:02:00,74.9,73.1,29.94,SW,223,0.0,0.0,94,0.01,RA,OVC,0.01,WeatherDisplay:10.37,2013-06-08 07:02:00,
2013-06-08 03:07:00,74.9,73.1,29.94,SW,223,0.0,0.0,94,0.01,,OVC,0.01,WeatherDisplay:10.37,2013-06-08 07:07:00,
2013-06-08 03:12:00,74.9,73.1,29.94,SW,223,0.0,0.0,94,0.01,,OVC,0.01,WeatherDisplay:10.37,2013-06-08 07:12:00,
2013-06-08 03:17:00,74.7,72.9,29.93,SW,223,0.0,0.0,94,0.01,,OVC,0.01,WeatherDisplay:10.37,2013-06-08 07:17:00,
2013-06-08 03:22:00,74.7,73.2,29.93,SW,223,0.0,0.0,95,0.01,,OVC,0.01,WeatherDisplay:10.37,2013-06-08 07:22:00,
2013-06-08 03:27:00,74.9,73.4,29.93,SW,223,0.0,0.0,95,0.01,,OVC,0.01,WeatherDisplay:10.37,2013-06-08 07:27:00,
2013-06-08 03:32:00,74.7,73.2,29.93,SW,223,0.0,0.0,95,0.01,,OVC,0.01,WeatherDisplay:10.37,2013-06-08 07:32:00,
2013-06-08 03:37:00,74.7,73.2,29.93,SW,223,0.0,0.0,95,0.01,,OVC,0.01,WeatherDisplay:10.37,2013-06-08 07:37:00,
2013-06-08 03:42:00,74.6,73.1,29.93,SW,223,0.0,0.0,95,0.01,,OVC,0.01,WeatherDisplay:10.37,2013-06-08 07:42:00,
2013-06-08 03:47:00,74.6,73.1,29.93,SW,223,0.0,0.0,95,0.01,,OVC,0.01,WeatherDisplay:10.37,2013-06-08 07:47:00,
2013-06-08 03:52:00,74.6,73.1,29.93,SW,223,0.0,0.0,95,0.01,,OVC,0.01,WeatherDisplay:10.37,2013-06-08 07:52:00,
2013-06-08 03:57:00,74.4,72.9,29.93,SW,223,0.0,0.0,95,0.00,,OVC,0.01,WeatherDisplay:10.37,2013-06-08 07:57:00,
2013-06-08 04:02:00,74.4,72.9,29.93,SW,223,0.0,0.0,95,0.00,,OVC,0.01,WeatherDisplay:10.37,2013-06-08 08:02:00,
2013-06-08 04:07:00,74.6,73.1,29.93,SW,223,0.0,0.0,95,0.00,,OVC,0.01,WeatherDisplay:10.37,2013-06-08 08:07:00,
2013-06-08 04:12:00,74.6,73.1,29.93,SW,223,0.0,0.0,95,0.00,,OVC,0.01,WeatherDisplay:10.37,2013-06-08 08:12:00,
2013-06-08 04:17:00,74.6,73.1,29.94,SW,223,0.0,0.0,95,0.00,,OVC,0.01,WeatherDisplay:10.37,2013-06-08 08:17:00,
2013-06-08 04:22:00,74.4,72.9,29.94,SW,223,0.0,0.0,95,0.00,,OVC,0.01,WeatherDisplay:10.37,2013-06-08 08:22:00,
2013-06-08 04:27:00,74.4,72.9,29.94,SW,223,0.0,0.0,95,0.00,,OVC,0.01,WeatherDisplay:10.37,2013-06-08 08:27:00,
2013-06-08 04:32:00,74.4,72.9,29.94,SW,223,0.0,0.0,95,0.00,,OVC,0.01,WeatherDisplay:10.37,2013-06-08 08:32:00,
2013-06-08 04:37:00,74.2,72.7,29.94,SW,223,0.0,0.0,95,0.00,,OVC,0.01,WeatherDisplay:10.37,2013-06-08 08:37:00,
2013-06-08 04:43:00,74.4,72.9,29.94,SW,223,0.0,0.0,95,0.00,,OVC,0.01,WeatherDisplay:10.37,2013-06-08 08:43:00,
2013-06-08 04:48:00,74.4,73.2,29.95,SW,223,0.0,0.0,96,0.00,,OVC,0.01,WeatherDisplay:10.37,2013-06-08 08:48:00,
2013-06-08 04:53:00,74.4,73.2,29.95,SW,223,0.0,0.0,96,0.00,,OVC,0.01,WeatherDisplay:10.37,2013-06-08 08:53:00,
2013-06-08 04:58:00,74.4,73.2,29.95,SW,223,0.0,0.0,96,0.00,,OVC,0.01,WeatherDisplay:10.37,2013-06-08 08:58:00,
2013-06-08 05:03:00,74.4,73.2,29.95,SW,223,0.0,0.0,96,0.00,,OVC,0.01,WeatherDisplay:10.37,2013-06-08 09:03:00,
2013-06-08 05:08:00,74.4,73.2,29.95,SW,223,0.0,0.0,96,0.00,,OVC,0.01,WeatherDisplay:10.37,2013-06-08 09:08:00,
2013-06-08 05:13:00,74.6,73.4,29.95,SW,223,0.0,0.0,96,0.00,,OVC,0.01,WeatherDisplay:10.37,2013-06-08 09:13:00,
2013-06-08 05:18:00,74.6,73.4,29.96,SW,223,0.0,0.0,96,0.00,,OVC,0.01,WeatherDisplay:10.37,2013-06-08 09:18:00,
2013-06-08 05:23:00,74.7,73.5,29.96,SW,223,0.0,0.0,96,0.00,,OVC,0.01,WeatherDisplay:10.37,2013-06-08 09:23:00,
2013-06-08 05:28:00,74.7,73.5,29.96,SW,223,0.0,0.0,96,0.00,,OVC,0.01,WeatherDisplay:10.37,2013-06-08 09:28:00,
2013-06-08 05:33:00,74.7,73.5,29.96,SW,223,0.0,0.0,96,0.00,,OVC,0.01,WeatherDisplay:10.37,2013-06-08 09:33:00,
2013-06-08 05:38:00,74.9,73.7,29.96,SW,223,0.0,0.0,96,0.00,,OVC,0.01,WeatherDisplay:10.37,2013-06-08 09:38:00,
2013-06-08 05:43:00,74.9,73.7,29.96,SW,223,0.0,0.0,96,0.00,,OVC,0.01,WeatherDisplay:10.37,2013-06-08 09:43:00,
2013-06-08 05:48:00,74.9,73.7,29.96,SW,223,0.0,0.0,96,0.00,,OVC,0.01,WeatherDisplay:10.37,2013-06-08 09:48:00,
2013-06-08 05:53:00,74.9,73.7,29.96,SW,223,0.0,0.0,96,0.00,,OVC,0.01,WeatherDisplay:10.37,2013-06-08 09:53:00,
2013-06-08 05:58:00,74.9,73.7,29.96,SW,223,0.0,0.0,96,0.00,,OVC,0.01,WeatherDisplay:10.37,2013-06-08 09:58:00,
2013-06-08 06:03:00,74.9,73.7,29.96,SW,223,0.0,0.0,96,0.00,,OVC,0.01,WeatherDisplay:10.37,2013-06-08 10:03:00,
2013-06-08 06:08:00,74.9,73.7,29.96,SW,223,0.0,0.0,96,0.00,,OVC,0.01,WeatherDisplay:10.37,2013-06-08 10:08:00,
2013-06-08 06:13:00,74.9,73.7,29.96,SW,223,0.0,0.0,96,0.00,,OVC,0.01,WeatherDisplay:10.37,2013-06-08 10:13:00,
2013-06-08 06:18:00,74.7,73.5,29.97,SW,223,0.0,0.0,96,0.00,,OVC,0.01,WeatherDisplay:10.37,2013-06-08 10:18:00,
2013-06-08 06:23:00,74.7,73.5,29.97,SW,223,0.0,0.0,96,0.00,,OVC,0.01,WeatherDisplay:10.37,2013-06-08 10:23:00,
2013-06-08 06:28:00,74.7,73.5,29.97,SW,223,0.0,0.0,96,0.00,,OVC,0.01,WeatherDisplay:10.37,2013-06-08 10:28:00,
2013-06-08 06:33:00,74.7,73.5,29.97,SW,223,0.0,0.0,96,0.00,,OVC,0.01,WeatherDisplay:10.37,2013-06-08 10:33:00,
2013-06-08 06:38:00,74.7,73.5,29.97,SW,223,0.0,0.0,96,0.00,,OVC,0.01,WeatherDisplay:10.37,2013-06-08 10:38:00,
2013-06-08 06:43:00,74.7,73.5,29.97,SW,223,0.0,0.0,96,0.00,,OVC,0.01,WeatherDisplay:10.37,2013-06-08 10:43:00,
2013-06-08 06:48:00,74.7,73.5,29.98,SW,223,0.0,0.0,96,0.00,,OVC,0.01,WeatherDisplay:10.37,2013-06-08 10:48:00,
2013-06-08 06:53:00,74.6,73.4,29.98,SW,223,0.0,0.0,96,0.00,,OVC,0.01,WeatherDisplay:10.37,2013-06-08 10:53:00,
2013-06-08 06:58:00,74.6,73.4,29.98,SW,223,0.0,0.0,96,0.00,,OVC,0.01,WeatherDisplay:10.37,2013-06-08 10:58:00,
2013-06-08 07:03:00,74.7,73.5,29.98,SW,223,0.0,0.0,96,0.00,,OVC,0.01,WeatherDisplay:10.37,2013-06-08 11:03:00,
2013-06-08 07:08:00,74.9,73.7,29.98,SW,223,0.0,0.0,96,0.00,,OVC,0.01,WeatherDisplay:10.37,2013-06-08 11:08:00,
2013-06-08 07:13:00,74.9,73.7,29.98,SW,223,0.0,0.0,96,0.00,,OVC,0.01,WeatherDisplay:10.37,2013-06-08 11:13:00,
2013-06-08 07:18:00,75.1,73.9,29.99,SW,223,0.0,0.0,96,0.00,,OVC,0.01,WeatherDisplay:10.37,2013-06-08 11:18:00,
2013-06-08 07:23:00,75.3,74.1,29.99,SW,223,0.0,0.0,96,0.00,,OVC,0.01,WeatherDisplay:10.37,2013-06-08 11:23:00,
2013-06-08 07:28:00,75.3,74.1,29.99,SW,223,0.0,0.0,96,0.00,,OVC,0.01,WeatherDisplay:10.37,2013-06-08 11:28:00,
2013-06-08 07:33:00,75.4,74.2,29.99,SW,223,0.0,0.0,96,0.00,,OVC,0.01,WeatherDisplay:10.37,2013-06-08 11:33:00,
2013-06-08 07:38:00,75.6,74.4,29.99,SW,223,0.0,0.0,96,0.00,,OVC,0.01,WeatherDisplay:10.37,2013-06-08 11:38:00,
2013-06-08 07:43:00,75.8,74.6,29.99,SW,223,0.0,0.0,96,0.00,,OVC,0.01,WeatherDisplay:10.37,2013-06-08 11:43:00,
2013-06-08 07:48:00,75.8,74.6,29.99,SW,223,0.0,0.0,96,0.00,CLR,OVC,0.01,WeatherDisplay:10.37,2013-06-08 11:48:00,
2013-06-08 07:53:00,76.0,74.8,29.99,SW,223,0.0,0.0,96,0.00,RA,OVC,0.01,WeatherDisplay:10.37,2013-06-08 11:53:00,
2013-06-08 07:58:00,76.0,74.8,29.99,SW,223,0.0,0.0,96,0.00,RA,OVC,0.01,WeatherDisplay:10.37,2013-06-08 11:58:00,
2013-06-08 08:03:00,76.0,74.8,30.00,SW,223,0.0,0.0,96,0.00,CLR,OVC,0.01,WeatherDisplay:10.37,2013-06-08 12:03:00,
2013-06-08 08:08:00,76.0,74.8,30.00,SW,223,0.0,0.0,96,0.00,CLR,OVC,0.01,WeatherDisplay:10.37,2013-06-08 12:08:00,
2013-06-08 08:13:00,76.0,74.8,30.00,SW,223,0.0,0.0,96,0.00,CLR,OVC,0.01,WeatherDisplay:10.37,2013-06-08 12:13:00,
2013-06-08 08:18:00,76.0,74.8,30.01,SW,223,0.0,0.0,96,0.00,CLR,OVC,0.01,WeatherDisplay:10.37,2013-06-08 12:18:00,
2013-06-08 08:23:00,76.0,74.8,30.01,SW,223,0.0,0.0,96,0.00,CLR,OVC,0.01,WeatherDisplay:10.37,2013-06-08 12:23:00,
2013-06-08 08:28:00,76.0,74.8,30.01,SW,223,0.0,0.0,96,0.00,CLR,OVC,0.01,WeatherDisplay:10.37,2013-06-08 12:28:00,
2013-06-08 08:33:00,76.1,74.9,30.01,SW,223,0.0,0.0,96,0.00,CLR,OVC,0.01,WeatherDisplay:10.37,2013-06-08 12:33:00,
2013-06-08 08:38:00,76.1,74.9,30.01,SW,223,0.0,0.0,96,0.00,CLR,OVC,0.01,WeatherDisplay:10.37,2013-06-08 12:38:00,
2013-06-08 08:43:00,76.5,75.3,30.01,SW,223,0.0,0.0,96,0.00,CLR,OVC,0.01,WeatherDisplay:10.37,2013-06-08 12:43:00,
2013-06-08 08:48:00,76.7,75.5,30.02,SSW,194,0.0,0.0,96,0.00,CLR,OVC,0.01,WeatherDisplay:10.37,2013-06-08 12:48:00,
2013-06-08 08:53:00,77.0,75.8,30.02,SSW,194,0.0,0.0,96,0.00,CLR,OVC,0.01,WeatherDisplay:10.37,2013-06-08 12:53:00,
2013-06-08 08:58:00,77.2,76.0,30.02,SE,134,0.0,0.0,96,0.00,CLR,OVC,0.01,WeatherDisplay:10.37,2013-06-08 12:58:00,
2013-06-08 09:03:00,77.4,75.9,30.02,SE,136,0.0,0.0,95,0.00,CLR,OVC,0.01,WeatherDisplay:10.37,2013-06-08 13:03:00,
2013-06-08 09:08:00,77.6,76.1,30.02,SE,138,0.0,0.0,95,0.00,CLR,OVC,0.01,WeatherDisplay:10.37,2013-06-08 13:08:00,
2013-06-08 09:13:00,77.9,76.4,30.02,SE,137,0.0,0.0,95,0.00,CLR,OVC,0.01,WeatherDisplay:10.37,2013-06-08 13:13:00,
2013-06-08 09:18:00,78.1,76.6,30.02,SE,140,0.0,0.0,95,0.00,CLR,OVC,0.01,WeatherDisplay:10.37,2013-06-08 13:18:00,
2013-06-08 09:23:00,78.6,76.7,30.02,SE,140,0.0,0.0,94,0.00,CLR,OVC,0.01,WeatherDisplay:10.37,2013-06-08 13:23:00,
2013-06-08 09:28:00,78.8,76.9,30.02,SE,140,0.0,0.0,94,0.00,CLR,OVC,0.01,WeatherDisplay:10.37,2013-06-08 13:28:00,
2013-06-08 09:33:00,79.0,76.8,30.02,SE,138,0.0,0.0,93,0.00,CLR,OVC,0.01,WeatherDisplay:10.37,2013-06-08 13:33:00,
2013-06-08 09:38:00,79.0,76.5,30.02,SE,146,0.0,0.0,92,0.00,CLR,OVC,0.01,WeatherDisplay:10.37,2013-06-08 13:38:00,
2013-06-08 09:43:00,79.2,76.3,30.02,SSE,150,0.0,0.0,91,0.00,CLR,OVC,0.01,WeatherDisplay:10.37,2013-06-08 13:43:00,
2013-06-08 09:49:00,79.6,76.4,30.02,SSE,151,0.0,0.0,90,0.00,CLR,OVC,0.01,WeatherDisplay:10.37,2013-06-08 13:49:00,
2013-06-08 09:54:00,79.8,76.3,30.02,SSE,152,0.0,0.0,89,0.00,CLR,OVC,0.01,WeatherDisplay:10.37,2013-06-08 13:54:00,
2013-06-08 09:59:00,79.8,75.9,30.02,SE,145,0.0,0.0,88,0.00,CLR,OVC,0.01,WeatherDisplay:10.37,2013-06-08 13:59:00,
2013-06-08 10:04:00,79.9,75.7,30.03,SSE,159,0.0,0.0,87,0.00,CLR,OVC,0.01,WeatherDisplay:10.37,2013-06-08 14:04:00,
2013-06-08 10:09:00,80.1,75.2,30.03,SSE,148,0.0,0.0,85,0.00,CLR,OVC,0.01,WeatherDisplay:10.37,2013-06-08 14:09:00,
2013-06-08 10:14:00,80.5,74.9,30.03,SSE,150,15.0,15.0,83,0.00,CLR,OVC,0.01,WeatherDisplay:10.37,2013-06-08 14:14:00,
2013-06-08 10:19:00,81.1,75.1,30.03,SE,146,3.5,0.0,82,0.00,CLR,OVC,0.01,WeatherDisplay:10.37,2013-06-08 14:19:00,
2013-06-08 10:24:00,81.4,75.0,30.03,South,175,3.0,3.0,81,0.00,CLR,OVC,0.01,WeatherDisplay:10.37,2013-06-08 14:24:00,
2013-06-08 10:29:00,81.8,74.6,30.03,SE,142,0.0,0.0,79,0.00,CLR,OVC,0.01,WeatherDisplay:10.37,2013-06-08 14:29:00,
2013-06-08 10:34:00,82.2,74.7,30.03,SSW,198,1.2,0.0,78,0.00,CLR,OVC,0.01,WeatherDisplay:10.37,2013-06-08 14:34:00,
2013-06-08 10:39:00,82.6,75.0,30.03,SSE,165,6.9,0.0,78,0.00,CLR,OVC,0.01,WeatherDisplay:10.37,2013-06-08 14:39:00,
2013-06-08 10:44:00,83.2,75.6,30.04,ESE,117,0.0,0.0,78,0.00,CLR,OVC,0.01,WeatherDisplay:10.37,2013-06-08 14:44:00,
2013-06-08 10:49:00,83.4,75.0,30.04,SSE,148,8.1,8.1,76,0.00,CLR,OVC,0.01,WeatherDisplay:10.37,2013-06-08 14:49:00,
2013-06-08 10:54:00,84.0,75.6,30.04,ESE,108,1.2,1.2,76,0.00,CLR,OVC,0.01,WeatherDisplay:10.37,2013-06-08 14:54:00,
2013-06-08 10:59:00,84.3,75.1,30.03,SSE,157,0.0,0.0,74,0.00,CLR,OVC,0.01,WeatherDisplay:10.37,2013-06-08 14:59:00,
2013-06-08 11:04:00,84.5,75.3,30.03,SSE,155,15.0,15.0,74,0.00,,OVC,0.01,WeatherDisplay:10.37,2013-06-08 15:04:00,
2013-06-08 11:09:00,85.3,76.5,30.03,SE,144,4.0,4.0,75,0.00,,OVC,0.01,WeatherDisplay:10.37,2013-06-08 15:09:00,
2013-06-08 11:14:00,85.3,76.1,30.04,SE,142,0.0,0.0,74,0.00,,OVC,0.01,WeatherDisplay:10.37,2013-06-08 15:14:00,
2013-06-08 11:19:00,85.1,75.5,30.04,SE,138,0.0,0.0,73,0.00,,OVC,0.01,WeatherDisplay:10.37,2013-06-08 15:19:00,
2013-06-08 11:24:00,84.5,74.5,30.04,SSE,152,13.8,13.8,72,0.00,,OVC,0.01,WeatherDisplay:10.37,2013-06-08 15:24:00,
2013-06-08 11:29:00,84.7,75.5,30.04,SE,141,0.0,0.0,74,0.00,,OVC,0.01,WeatherDisplay:10.37,2013-06-08 15:29:00,
2013-06-08 11:34:00,84.9,74.9,30.04,ESE,116,0.0,0.0,72,0.00,,OVC,0.01,WeatherDisplay:10.37,2013-06-08 15:34:00,
2013-06-08 11:39:00,84.7,73.4,30.04,SSE,159,11.5,11.5,69,0.00,,OVC,0.01,WeatherDisplay:10.37,2013-06-08 15:39:00,
2013-06-08 11:44:00,84.9,74.0,30.04,South,169,0.0,0.0,70,0.00,,OVC,0.01,WeatherDisplay:10.37,2013-06-08 15:44:00,
2013-06-08 11:49:00,85.3,74.8,30.04,SE,134,0.0,0.0,71,0.00,,OVC,0.01,WeatherDisplay:10.37,2013-06-08 15:49:00,
2013-06-08 11:54:00,85.7,74.4,30.04,SE,145,0.0,0.0,69,0.00,,OVC,0.01,WeatherDisplay:10.37,2013-06-08 15:54:00,
2013-06-08 11:59:00,85.7,73.9,30.04,SE,138,0.0,0.0,68,0.00,,OVC,0.01,WeatherDisplay:10.37,2013-06-08 15:59:00,
2013-06-08 12:04:00,85.7,73.9,30.04,SE,142,14.0,14.0,68,0.00,,OVC,0.01,WeatherDisplay:10.37,2013-06-08 16:04:00,
2013-06-08 12:09:00,85.9,73.7,30.04,SSE,161,0.0,0.0,67,0.00,,OVC,0.01,WeatherDisplay:10.37,2013-06-08 16:09:00,
2013-06-08 12:14:00,85.9,73.7,30.04,SE,128,0.0,0.0,67,0.00,,OVC,0.01,WeatherDisplay:10.37,2013-06-08 16:14:00,
2013-06-08 12:19:00,86.1,73.9,30.04,SSE,165,9.2,0.0,67,0.00,,OVC,0.01,WeatherDisplay:10.37,2013-06-08 16:19:00,
2013-06-08 12:24:00,85.9,74.1,30.04,SE,146,0.0,0.0,68,0.00,,OVC,0.01,WeatherDisplay:10.37,2013-06-08 16:24:00,
2013-06-08 12:29:00,86.1,74.3,30.04,SSE,155,16.1,16.1,68,0.00,,OVC,0.01,WeatherDisplay:10.37,2013-06-08 16:29:00,
2013-06-08 12:34:00,86.3,75.8,30.04,SSE,149,0.0,0.0,71,0.00,,OVC,0.01,WeatherDisplay:10.37,2013-06-08 16:34:00,
2013-06-08 12:39:00,86.5,74.7,30.04,ESE,111,11.5,11.5,68,0.00,,OVC,0.01,WeatherDisplay:10.37,2013-06-08 16:39:00,
2013-06-08 12:44:00,86.7,75.3,30.04,SE,140,5.0,5.0,69,0.00,,OVC,0.01,WeatherDisplay:10.37,2013-06-08 16:44:00,
2013-06-08 12:49:00,87.0,75.2,30.04,SE,124,12.7,12.7,68,0.00,,OVC,0.01,WeatherDisplay:10.37,2013-06-08 16:49:00,
2013-06-08 12:54:00,87.2,75.3,30.04,SSE,159,8.0,8.0,68,0.00,,OVC,0.01,WeatherDisplay:10.37,2013-06-08 16:54:00,
2013-06-08 12:59:00,87.2,76.6,30.03,SE,142,19.6,19.6,71,0.00,,OVC,0.01,WeatherDisplay:10.37,2013-06-08 16:59:00,
2013-06-08 13:04:00,87.4,76.0,30.03,SSE,152,8.1,0.0,69,0.00,,OVC,0.01,WeatherDisplay:10.37,2013-06-08 17:04:00,
2013-06-08 13:09:00,87.6,75.3,30.03,SSE,154,12.7,12.7,67,0.00,,OVC,0.01,WeatherDisplay:10.37,2013-06-08 17:09:00,
2013-06-08 13:14:00,87.2,75.3,30.02,SE,136,21.9,21.9,68,0.00,,OVC,0.01,WeatherDisplay:10.37,2013-06-08 17:14:00,
2013-06-08 13:19:00,87.2,75.8,30.02,SE,134,11.5,0.0,69,0.00,,OVC,0.01,WeatherDisplay:10.37,2013-06-08 17:19:00,
2013-06-08 13:24:00,87.4,76.0,30.02,SSW,193,11.5,11.5,69,0.00,,OVC,0.01,WeatherDisplay:10.37,2013-06-08 17:24:00,
2013-06-08 13:29:00,87.6,75.7,30.02,SE,126,6.9,6.9,68,0.00,,OVC,0.01,WeatherDisplay:10.37,2013-06-08 17:29:00,
2013-06-08 13:34:00,87.6,75.7,30.02,SSE,148,6.0,6.0,68,0.00,,OVC,0.01,WeatherDisplay:10.37,2013-06-08 17:34:00,
2013-06-08 13:39:00,87.6,74.8,30.02,SSE,150,11.5,11.5,66,0.00,,OVC,0.01,WeatherDisplay:10.37,2013-06-08 17:39:00,
2013-06-08 13:44:00,87.6,75.3,30.02,SE,139,19.0,19.0,67,0.00,,OVC,0.01,WeatherDisplay:10.37,2013-06-08 17:44:00,
2013-06-08 13:49:00,87.4,74.6,30.02,SE,124,20.7,20.7,66,0.00,,OVC,0.01,WeatherDisplay:10.37,2013-06-08 17:49:00,
2013-06-08 13:54:00,87.6,74.4,30.02,SSE,154,19.6,19.6,65,0.00,,OVC,0.01,WeatherDisplay:10.37,2013-06-08 17:54:00,
2013-06-08 13:59:00,87.4,75.1,30.01,SE,133,11.5,11.5,67,0.00,,OVC,0.01,WeatherDisplay:10.37,2013-06-08 17:59:00,
2013-06-08 14:04:00,87.6,75.7,30.01,South,188,15.0,15.0,68,0.00,,OVC,0.01,WeatherDisplay:10.37,2013-06-08 18:04:00,
2013-06-08 14:09:00,87.8,75.9,30.01,SSE,159,21.0,21.0,68,0.00,,OVC,0.01,WeatherDisplay:10.37,2013-06-08 18:09:00,
2013-06-08 14:14:00,88.2,76.3,30.00,NE,42,0.0,0.0,68,0.00,,OVC,0.01,WeatherDisplay:10.37,2013-06-08 18:14:00,
2013-06-08 14:19:00,87.8,75.5,30.00,East,101,10.4,0.0,67,0.00,,OVC,0.01,WeatherDisplay:10.37,2013-06-08 18:19:00,
2013-06-08 14:24:00,87.2,75.3,30.00,SE,144,10.4,10.4,68,0.00,,OVC,0.01,WeatherDisplay:10.37,2013-06-08 18:24:00,
2013-06-08 14:29:00,86.3,75.8,30.00,East,84,0.0,0.0,71,0.00,,OVC,0.01,WeatherDisplay:10.37,2013-06-08 18:29:00,
2013-06-08 14:34:00,85.9,75.4,30.00,SSE,147,13.8,13.8,71,0.00,,OVC,0.01,WeatherDisplay:10.37,2013-06-08 18:34:00,
2013-06-08 14:39:00,85.9,76.2,30.00,SE,139,2.3,0.0,73,0.00,,OVC,0.01,WeatherDisplay:10.37,2013-06-08 18:39:00,
2013-06-08 14:44:00,85.9,76.2,30.00,ESE,118,12.7,12.7,73,0.00,,OVC,0.01,WeatherDisplay:10.37,2013-06-08 18:44:00,
2013-06-08 14:49:00,85.5,75.9,30.00,SE,133,14.0,14.0,73,0.00,,OVC,0.01,WeatherDisplay:10.37,2013-06-08 18:49:00,
2013-06-08 14:54:00,85.1,75.1,30.00,SE,132,12.7,12.7,72,0.00,,OVC,0.01,WeatherDisplay:10.37,2013-06-08 18:54:00,
2013-06-08 14:59:00,85.1,75.5,29.99,ESE,113,0.0,0.1,73,0.00,,OVC,0.01,WeatherDisplay:10.37,2013-06-08 18:59:00,
2013-06-08 15:04:00,85.1,75.9,29.99,SSE,156,9.2,9.2,74,0.00,,OVC,0.01,WeatherDisplay:10.37,2013-06-08 19:04:00,
2013-06-08 15:09:00,84.9,74.9,29.99,SE,137,17.3,17.3,72,0.00,,OVC,0.01,WeatherDisplay:10.37,2013-06-08 19:09:00,
2013-06-08 15:14:00,84.7,75.1,29.98,ESE,119,17.3,17.3,73,0.00,,OVC,0.01,WeatherDisplay:10.37,2013-06-08 19:14:00,
2013-06-08 15:19:00,84.7,75.5,29.98,SE,134,14.0,14.0,74,0.00,,OVC,0.01,WeatherDisplay:10.37,2013-06-08 19:19:00,
2013-06-08 15:25:00,84.5,74.9,29.98,SE,128,6.9,6.9,73,0.00,,OVC,0.01,WeatherDisplay:10.37,2013-06-08 19:25:00,
2013-06-08 15:29:00,84.5,74.5,29.98,SE,130,16.1,16.1,72,0.00,,OVC,0.01,WeatherDisplay:10.37,2013-06-08 19:29:00,
2013-06-08 15:35:00,84.3,74.3,29.98,SE,142,16.1,16.1,72,0.00,,OVC,0.01,WeatherDisplay:10.37,2013-06-08 19:35:00,
2013-06-08 15:40:00,84.5,74.5,29.98,ESE,115,0.0,0.0,72,0.00,,OVC,0.01,WeatherDisplay:10.37,2013-06-08 19:40:00,
2013-06-08 15:45:00,84.7,75.1,29.98,SE,138,0.0,0.0,73,0.00,,OVC,0.01,WeatherDisplay:10.37,2013-06-08 19:45:00,
2013-06-08 15:50:00,84.9,74.4,29.98,SE,139,13.8,13.8,71,0.00,,OVC,0.01,WeatherDisplay:10.37,2013-06-08 19:50:00,
2013-06-08 15:55:00,85.5,75.0,29.98,SE,136,10.4,10.4,71,0.00,,OVC,0.01,WeatherDisplay:10.37,2013-06-08 19:55:00,
2013-06-08 16:00:00,85.9,75.4,29.99,SE,130,3.5,3.5,71,0.00,,OVC,0.01,WeatherDisplay:10.37,2013-06-08 20:00:00,
2013-06-08 16:05:00,86.3,74.9,29.99,East,94,9.2,9.2,69,0.00,,OVC,0.01,WeatherDisplay:10.37,2013-06-08 20:05:00,
2013-06-08 16:10:00,86.1,74.3,29.99,SE,146,13.8,13.8,68,0.00,,OVC,0.01,WeatherDisplay:10.37,2013-06-08 20:10:00,
2013-06-08 16:15:00,86.1,74.7,29.99,SSE,150,0.0,0.0,69,0.00,,OVC,0.01,WeatherDisplay:10.37,2013-06-08 20:15:00,
2013-06-08 16:20:00,85.9,74.5,29.99,SE,144,9.2,9.2,69,0.00,,OVC,0.01,WeatherDisplay:10.37,2013-06-08 20:20:00,
2013-06-08 16:25:00,85.7,74.4,29.99,SE,145,10.4,10.4,69,0.00,,OVC,0.01,WeatherDisplay:10.37,2013-06-08 20:25:00,
2013-06-08 16:30:00,85.7,74.4,30.00,SSE,159,0.0,0.0,69,0.00,,OVC,0.01,WeatherDisplay:10.37,2013-06-08 20:30:00,
2013-06-08 16:35:00,85.5,73.3,30.00,SSE,155,14.0,14.0,67,0.00,,OVC,0.01,WeatherDisplay:10.37,2013-06-08 20:35:00,
2013-06-08 16:40:00,85.3,73.5,30.00,South,179,0.0,0.0,68,0.00,,OVC,0.01,WeatherDisplay:10.37,2013-06-08 20:40:00,
2013-06-08 16:45:00,85.1,73.3,30.00,SSE,168,3.5,3.5,68,0.00,,OVC,0.01,WeatherDisplay:10.37,2013-06-08 20:45:00,
2013-06-08 16:50:00,85.1,72.9,30.00,SE,136,0.0,0.0,67,0.00,,OVC,0.01,WeatherDisplay:10.37,2013-06-08 20:50:00,
2013-06-08 16:55:00,85.1,72.9,30.00,SE,138,10.0,10.0,67,0.00,,OVC,0.01,WeatherDisplay:10.37,2013-06-08 20:55:00,
2013-06-08 17:00:00,85.1,72.9,30.01,SE,138,0.0,0.0,67,0.00,,OVC,0.01,WeatherDisplay:10.37,2013-06-08 21:00:00,
2013-06-08 17:05:00,84.9,72.7,30.01,SE,142,15.0,15.0,67,0.00,,OVC,0.01,WeatherDisplay:10.37,2013-06-08 21:05:00,
2013-06-08 17:10:00,84.9,73.2,30.01,SSE,159,3.5,3.5,68,0.00,,OVC,0.01,WeatherDisplay:10.37,2013-06-08 21:10:00,
2013-06-08 17:15:00,84.9,73.2,30.01,SSE,156,0.0,0.0,68,0.00,,OVC,0.01,WeatherDisplay:10.37,2013-06-08 21:15:00,
2013-06-08 17:20:00,84.9,73.6,30.01,SE,138,8.1,8.1,69,0.00,,OVC,0.01,WeatherDisplay:10.37,2013-06-08 21:20:00,
2013-06-08 17:25:00,84.7,73.8,30.01,SSE,159,0.0,0.0,70,0.00,,OVC,0.01,WeatherDisplay:10.37,2013-06-08 21:25:00,
2013-06-08 17:30:00,84.3,73.4,30.01,SW,236,11.5,11.5,70,0.00,,OVC,0.01,WeatherDisplay:10.37,2013-06-08 21:30:00,
2013-06-08 17:35:00,83.6,73.2,30.01,WSW,250,4.6,4.6,71,0.00,,OVC,0.01,WeatherDisplay:10.37,2013-06-08 21:35:00,
2013-06-08 17:40:00,82.8,73.3,30.01,WSW,258,3.5,0.0,73,0.00,,OVC,0.01,WeatherDisplay:10.37,2013-06-08 21:40:00,
2013-06-08 17:45:00,82.4,72.9,30.00,West,267,0.0,0.0,73,0.00,,OVC,0.01,WeatherDisplay:10.37,2013-06-08 21:45:00,
2013-06-08 17:50:00,82.0,72.9,30.00,West,267,0.0,0.0,74,0.00,,OVC,0.01,WeatherDisplay:10.37,2013-06-08 21:50:00,
2013-06-08 17:55:00,82.2,73.1,30.00,West,267,0.0,0.0,74,0.00,,OVC,0.01,WeatherDisplay:10.37,2013-06-08 21:55:00,
2013-06-08 18:00:00,82.2,73.1,30.00,West,267,0.0,0.0,74,0.00,,OVC,0.01,WeatherDisplay:10.37,2013-06-08 22:00:00,
2013-06-08 18:05:00,82.2,73.1,30.00,West,267,0.0,0.0,74,0.00,,OVC,0.01,WeatherDisplay:10.37,2013-06-08 22:05:00,
2013-06-08 18:10:00,82.0,73.3,30.00,West,267,0.0,0.0,75,0.00,,OVC,0.01,WeatherDisplay:10.37,2013-06-08 22:10:00,
2013-06-08 18:15:00,82.0,73.7,30.01,West,267,0.0,0.0,76,0.00,,OVC,0.01,WeatherDisplay:10.37,2013-06-08 22:15:00,
2013-06-08 18:20:00,82.0,73.7,30.01,West,280,0.0,0.7,76,0.00,,OVC,0.01,WeatherDisplay:10.37,2013-06-08 22:20:00,
2013-06-08 18:25:00,81.8,73.5,30.01,WNW,302,5.8,5.8,76,0.00,,OVC,0.01,WeatherDisplay:10.37,2013-06-08 22:25:00,
2013-06-08 18:30:00,81.6,73.7,30.01,NW,325,0.0,0.0,77,0.00,,OVC,0.01,WeatherDisplay:10.37,2013-06-08 22:30:00,
2013-06-08 18:35:00,81.2,73.3,30.01,WNW,294,4.6,4.6,77,0.00,,OVC,0.01,WeatherDisplay:10.37,2013-06-08 22:35:00,
2013-06-08 18:40:00,81.1,73.2,30.01,WNW,300,0.0,0.0,77,0.00,,OVC,0.01,WeatherDisplay:10.37,2013-06-08 22:40:00,
2013-06-08 18:45:00,80.7,72.8,30.02,WNW,303,0.0,0.0,77,0.00,,OVC,0.01,WeatherDisplay:10.37,2013-06-08 22:45:00,
2013-06-08 18:50:00,80.3,72.8,30.02,NNW,331,2.3,0.0,78,0.00,,OVC,0.01,WeatherDisplay:10.37,2013-06-08 22:50:00,
2013-06-08 18:55:00,80.1,72.6,30.02,NNW,333,2.3,0.0,78,0.00,,OVC,0.01,WeatherDisplay:10.37,2013-06-08 22:55:00,
2013-06-08 19:00:00,80.1,72.6,30.02,NNW,333,0.0,0.0,78,0.00,,OVC,0.01,WeatherDisplay:10.37,2013-06-08 23:00:00,
2013-06-08 19:05:00,80.1,73.0,30.02,NNW,333,0.0,0.0,79,0.00,,OVC,0.01,WeatherDisplay:10.37,2013-06-08 23:05:00,
2013-06-08 19:10:00,80.1,73.0,30.02,NNW,333,0.0,0.0,79,0.00,,OVC,0.01,WeatherDisplay:10.37,2013-06-08 23:10:00,
2013-06-08 19:15:00,80.1,73.0,30.02,NNW,336,0.0,0.0,79,0.00,,OVC,0.01,WeatherDisplay:10.37,2013-06-08 23:15:00,
2013-06-08 19:20:00,80.1,73.0,30.02,NNW,336,0.0,0.0,79,0.00,,OVC,0.01,WeatherDisplay:10.37,2013-06-08 23:20:00,
2013-06-08 19:25:00,80.1,73.0,30.02,NNW,336,0.0,0.0,79,0.00,,OVC,0.01,WeatherDisplay:10.37,2013-06-08 23:25:00,
2013-06-08 19:30:00,80.3,73.2,30.02,NNW,336,0.0,0.0,79,0.00,,OVC,0.01,WeatherDisplay:10.37,2013-06-08 23:30:00,
2013-06-08 19:35:00,80.3,73.6,30.02,NNW,338,0.0,0.0,80,0.00,,OVC,0.01,WeatherDisplay:10.37,2013-06-08 23:35:00,
2013-06-08 19:40:00,80.3,73.6,30.02,NNW,338,0.0,0.0,80,0.00,,OVC,0.01,WeatherDisplay:10.37,2013-06-08 23:40:00,
2013-06-08 19:45:00,80.5,73.8,30.02,NNW,346,0.0,0.0,80,0.00,,OVC,0.01,WeatherDisplay:10.37,2013-06-08 23:45:00,
2013-06-08 19:50:00,80.5,73.8,30.02,NNW,346,0.0,0.0,80,0.00,,OVC,0.01,WeatherDisplay:10.37,2013-06-08 23:50:00,
2013-06-08 19:55:00,80.7,74.0,30.02,NNW,346,0.0,0.0,80,0.00,,OVC,0.01,WeatherDisplay:10.37,2013-06-08 23:55:00,
2013-06-08 20:00:00,80.7,74.3,30.03,NNW,346,0.0,0.0,81,0.00,,OVC,0.01,WeatherDisplay:10.37,2013-06-09 00:00:00,
2013-06-08 20:05:00,81.1,75.1,30.03,NNW,346,0.0,0.0,82,0.00,,OVC,0.01,WeatherDisplay:10.37,2013-06-09 00:05:00,
2013-06-08 20:10:00,81.2,75.2,30.03,East,83,0.0,0.0,82,0.00,,OVC,0.01,WeatherDisplay:10.37,2013-06-09 00:10:00,
2013-06-08 20:15:00,81.4,75.7,30.03,SE,137,0.0,0.4,83,0.00,,OVC,0.01,WeatherDisplay:10.37,2013-06-09 00:15:00,
2013-06-08 20:20:00,81.6,75.6,30.03,SE,130,0.0,0.0,82,0.00,,OVC,0.01,WeatherDisplay:10.37,2013-06-09 00:20:00,
2013-06-08 20:25:00,81.6,75.6,30.03,SE,140,8.1,8.1,82,0.00,,OVC,0.01,WeatherDisplay:10.37,2013-06-09 00:25:00,
2013-06-08 20:30:00,81.6,75.6,30.03,SSE,148,0.0,0.0,82,0.00,,OVC,0.01,WeatherDisplay:10.37,2013-06-09 00:30:00,
2013-06-08 20:35:00,81.6,75.6,30.03,ESE,111,0.0,0.0,82,0.00,,OVC,0.01,WeatherDisplay:10.37,2013-06-09 00:35:00,
2013-06-08 20:40:00,81.4,75.0,30.03,ESE,111,0.0,0.0,81,0.00,,OVC,0.01,WeatherDisplay:10.37,2013-06-09 00:40:00,
2013-06-08 20:45:00,81.4,75.0,30.04,ESE,102,0.0,0.0,81,0.00,,OVC,0.01,WeatherDisplay:10.37,2013-06-09 00:45:00,
2013-06-08 20:50:00,81.4,75.0,30.04,ESE,107,0.0,0.0,81,0.00,,OVC,0.01,WeatherDisplay:10.37,2013-06-09 00:50:00,
2013-06-08 20:55:00,81.4,75.0,30.04,ESE,109,0.0,0.0,81,0.00,,OVC,0.01,WeatherDisplay:10.37,2013-06-09 00:55:00,
2013-06-08 21:00:00,81.4,75.0,30.04,ESE,109,0.0,0.0,81,0.00,,OVC,0.01,WeatherDisplay:10.37,2013-06-09 01:00:00,
2013-06-08 21:05:00,81.4,75.0,30.04,East,96,0.0,0.0,81,0.00,,OVC,0.01,WeatherDisplay:10.37,2013-06-09 01:05:00,
2013-06-08 21:10:00,81.2,74.8,30.04,East,98,0.0,0.0,81,0.00,,OVC,0.01,WeatherDisplay:10.37,2013-06-09 01:10:00,
2013-06-08 21:15:00,81.2,75.2,30.04,East,86,0.0,0.0,82,0.00,,OVC,0.01,WeatherDisplay:10.37,2013-06-09 01:15:00,
2013-06-08 21:20:00,81.2,75.5,30.04,ENE,68,8.0,8.0,83,0.00,,OVC,0.01,WeatherDisplay:10.37,2013-06-09 01:20:00,
2013-06-08 21:25:00,81.2,75.5,30.04,ENE,68,0.0,0.0,83,0.00,,OVC,0.01,WeatherDisplay:10.37,2013-06-09 01:25:00,
2013-06-08 21:30:00,81.2,75.9,30.05,NE,44,0.0,0.0,84,0.00,,OVC,0.01,WeatherDisplay:10.37,2013-06-09 01:30:00,
2013-06-08 21:36:00,81.2,75.9,30.05,ENE,59,0.0,0.0,84,0.00,,OVC,0.01,WeatherDisplay:10.37,2013-06-09 01:36:00,
2013-06-08 21:41:00,81.2,75.9,30.05,ENE,60,0.0,0.0,84,0.00,,OVC,0.01,WeatherDisplay:10.37,2013-06-09 01:41:00,
2013-06-08 21:46:00,81.2,75.9,30.05,ENE,60,0.0,0.0,84,0.00,,OVC,0.01,WeatherDisplay:10.37,2013-06-09 01:46:00,
2013-06-08 21:51:00,81.2,76.3,30.05,ENE,78,0.0,0.0,85,0.00,,OVC,0.01,WeatherDisplay:10.37,2013-06-09 01:51:00,
2013-06-08 21:56:00,81.1,76.2,30.05,ENE,78,0.0,0.0,85,0.00,,OVC,0.01,WeatherDisplay:10.37,2013-06-09 01:56:00,
2013-06-08 22:01:00,81.2,76.3,30.05,East,82,9.2,9.2,85,0.00,,OVC,0.01,WeatherDisplay:10.37,2013-06-09 02:01:00,
2013-06-08 22:06:00,81.2,76.3,30.05,NE,38,0.0,0.0,85,0.00,,OVC,0.01,WeatherDisplay:10.37,2013-06-09 02:06:00,
2013-06-08 22:11:00,81.2,76.3,30.05,NE,42,0.0,0.0,85,0.00,,OVC,0.01,WeatherDisplay:10.37,2013-06-09 02:11:00,
2013-06-08 22:16:00,81.1,75.8,30.06,NE,42,0.0,0.0,84,0.00,,OVC,0.01,WeatherDisplay:10.37,2013-06-09 02:16:00,
2013-06-08 22:21:00,81.1,75.8,30.06,East,92,0.0,0.0,84,0.00,,OVC,0.01,WeatherDisplay:10.37,2013-06-09 02:21:00,
2013-06-08 22:26:00,81.1,75.8,30.06,SE,125,2.3,2.3,84,0.00,,OVC,0.01,WeatherDisplay:10.37,2013-06-09 02:26:00,
2013-06-08 22:31:00,81.1,75.8,30.06,East,96,0.0,0.0,84,0.00,,OVC,0.01,WeatherDisplay:10.37,2013-06-09 02:31:00,
2013-06-08 22:36:00,80.9,75.6,30.06,East,81,2.0,2.0,84,0.00,,OVC,0.01,WeatherDisplay:10.37,2013-06-09 02:36:00,
2013-06-08 22:41:00,80.9,75.6,30.06,SE,131,4.6,4.6,84,0.00,,OVC,0.01,WeatherDisplay:10.37,2013-06-09 02:41:00,
2013-06-08 22:46:00,80.9,75.2,30.06,ENE,71,0.0,0.0,83,0.00,,OVC,0.01,WeatherDisplay:10.37,2013-06-09 02:46:00,
2013-06-08 22:51:00,80.9,75.2,30.06,ESE,123,0.0,0.0,83,0.00,,OVC,0.01,WeatherDisplay:10.37,2013-06-09 02:51:00,
2013-06-08 22:56:00,80.7,75.1,30.06,East,80,0.0,0.0,83,0.00,,OVC,0.01,WeatherDisplay:10.37,2013-06-09 02:56:00,
2013-06-08 23:01:00,80.7,75.4,30.06,East,82,0.0,0.0,84,0.00,,OVC,0.01,WeatherDisplay:10.37,2013-06-09 03:01:00,
2013-06-08 23:07:00,80.7,75.4,30.06,East,84,0.0,0.0,84,0.00,,OVC,0.01,WeatherDisplay:10.37,2013-06-09 03:07:00,
2013-06-08 23:12:00,80.7,75.4,30.06,East,84,0.0,0.8,84,0.00,,OVC,0.01,WeatherDisplay:10.37,2013-06-09 03:12:00,
2013-06-08 23:17:00,80.5,75.2,30.06,East,87,0.0,0.0,84,0.00,,OVC,0.01,WeatherDisplay:10.37,2013-06-09 03:17:00,
2013-06-08 23:22:00,80.5,75.2,30.06,East,87,0.0,0.0,84,0.00,,OVC,0.01,WeatherDisplay:10.37,2013-06-09 03:22:00,
2013-06-08 23:27:00,80.3,75.0,30.06,ENE,71,0.0,0.0,84,0.00,,OVC,0.01,WeatherDisplay:10.37,2013-06-09 03:27:00,
2013-06-08 23:32:00,80.3,75.0,30.06,ENE,74,0.0,0.0,84,0.00,,OVC,0.01,WeatherDisplay:10.37,2013-06-09 03:32:00,
2013-06-08 23:37:00,80.3,75.4,30.06,ENE,75,0.0,0.0,85,0.00,,OVC,0.01,WeatherDisplay:10.37,2013-06-09 03:37:00,
2013-06-08 23:42:00,80.3,75.4,30.06,East,82,0.0,0.0,85,0.00,,OVC,0.01,WeatherDisplay:10.37,2013-06-09 03:42:00,
2013-06-08 23:47:00,80.3,75.4,30.07,East,82,0.0,0.0,85,0.00,,OVC,0.01,WeatherDisplay:10.37,2013-06-09 03:47:00,
2013-06-08 23:52:00,80.3,75.4,30.07,East,85,0.0,0.0,85,0.00,,OVC,0.01,WeatherDisplay:10.37,2013-06-09 03:52:00,
2013-06-08 23:57:00,80.3,75.4,30.07,ENE,71,0.0,0.0,85,0.00,,OVC,0.01,WeatherDisplay:10.37,2013-06-09 03:57:00,